VIJP/JAI METAR and TAF weather

Enter ICAO airport designator
Station Type Date Time Source
VIJP METAR 2021/09/24 06:00 UTC NOAA

VIJP 240600Z 08006KT 4000 HZ SCT030 SCT100 30/23 Q1010 NOSIG


Station Type Date Time Source
VIJP Decoded METAR 2021/09/24 06:00 UTC NOAA

Jaipur / Sanganer, India (VIJP) 26-49N 075-48E 390M
Sep 24, 2021 - 02:00 AM EDT / 2021.09.24 0600 UTC
Wind: from the E (080 degrees) at 7 MPH (6 KT):0
Visibility: 2 mile(s):0
Sky conditions: partly cloudy
Weather: haze
Temperature: 86 F (30 C)
Heat index: 93.4 F (34.1 C):1
Dew Point: 73 F (23 C)
Relative Humidity: 66%
Pressure (altimeter): 29.83 in. Hg (1010 hPa)
ob: VIJP 240600Z 08006KT 4000 HZ SCT030 SCT100 30/23 Q1010 NOSIG
cycle: 6

Station Type Date Time Source
VIJP TAF 2021/09/24 06:00 UTC NOAA

TAF VIJP 240500Z 2406/2512 07006KT 4000 HZ SCT030 BKN100
TEMPO 2406/2412 05010KT 1500 TSRA FEW035CB
BECMG 2412/2414 05005KT 2000 BR -RA SCT030 BKN090
BECMG 2505/2507 07005KT 3000 HZ BR SCT030 BKN100
TEMPO 2506/2512 05005KT 1500 TSRA FEW035CB BKN090

Example: see airport list